sensor_id;sensor_type;location;lat;lon;timestamp;pressure;altitude;pressure_sealevel;temperature;humidity
41573;BME280;27286;47.870;19.006;2022-10-31T00:01:51;99897.16;;;11.86;96.12
41573;BME280;27286;47.870;19.006;2022-10-31T00:04:16;99892.97;;;11.82;96.21
41573;BME280;27286;47.870;19.006;2022-10-31T00:06:42;99905.91;;;11.85;96.16
41573;BME280;27286;47.870;19.006;2022-10-31T00:09:09;99908.44;;;11.86;96.25
41573;BME280;27286;47.870;19.006;2022-10-31T00:11:35;99902.66;;;11.78;96.13
41573;BME280;27286;47.870;19.006;2022-10-31T00:14:00;99908.81;;;11.75;96.29
41573;BME280;27286;47.870;19.006;2022-10-31T00:16:26;99913.25;;;11.73;97.24
41573;BME280;27286;47.870;19.006;2022-10-31T00:18:54;99914.94;;;11.74;97.32
41573;BME280;27286;47.870;19.006;2022-10-31T00:21:20;99916.66;;;11.75;97.30
41573;BME280;27286;47.870;19.006;2022-10-31T00:23:46;99913.19;;;11.75;97.03
41573;BME280;27286;47.870;19.006;2022-10-31T00:26:12;99908.78;;;11.77;97.13
41573;BME280;27286;47.870;19.006;2022-10-31T00:28:37;99908.63;;;11.82;97.10
41573;BME280;27286;47.870;19.006;2022-10-31T00:31:05;99913.84;;;11.82;97.01
41573;BME280;27286;47.870;19.006;2022-10-31T00:33:33;99913.00;;;11.81;97.14
41573;BME280;27286;47.870;19.006;2022-10-31T00:35:59;99900.97;;;11.77;97.22
41573;BME280;27286;47.870;19.006;2022-10-31T00:38:24;99893.97;;;11.78;96.99
41573;BME280;27286;47.870;19.006;2022-10-31T00:40:49;99891.44;;;11.76;97.08
41573;BME280;27286;47.870;19.006;2022-10-31T00:43:15;99891.44;;;11.76;97.08
41573;BME280;27286;47.870;19.006;2022-10-31T00:45:43;99905.97;;;11.83;96.88
41573;BME280;27286;47.870;19.006;2022-10-31T00:48:09;99906.88;;;11.82;96.82
41573;BME280;27286;47.870;19.006;2022-10-31T00:50:37;99898.25;;;11.80;97.20
41573;BME280;27286;47.870;19.006;2022-10-31T00:53:03;99893.13;;;11.77;96.90
41573;BME280;27286;47.870;19.006;2022-10-31T00:55:29;99898.25;;;11.80;96.93
41573;BME280;27286;47.870;19.006;2022-10-31T00:57:55;99893.13;;;11.77;96.78
41573;BME280;27286;47.870;19.006;2022-10-31T01:00:20;99893.03;;;11.80;96.79
41573;BME280;27286;47.870;19.006;2022-10-31T01:02:46;99882.84;;;11.72;96.71
41573;BME280;27286;47.870;19.006;2022-10-31T01:05:11;99896.56;;;11.79;96.61
41573;BME280;27286;47.870;19.006;2022-10-31T01:07:38;99897.44;;;11.78;96.58
41573;BME280;27286;47.870;19.006;2022-10-31T01:10:05;99884.56;;;11.73;96.62
41573;BME280;27286;47.870;19.006;2022-10-31T01:12:38;99900.88;;;11.80;96.76
41573;BME280;27286;47.870;19.006;2022-10-31T01:15:04;99884.50;;;11.75;96.73
41573;BME280;27286;47.870;19.006;2022-10-31T01:17:30;99888.00;;;11.74;96.86
41573;BME280;27286;47.870;19.006;2022-10-31T01:19:55;99879.28;;;11.75;96.71
41573;BME280;27286;47.870;19.006;2022-10-31T01:22:21;99881.94;;;11.73;96.73
41573;BME280;27286;47.870;19.006;2022-10-31T01:24:46;99874.31;;;11.69;96.33
41573;BME280;27286;47.870;19.006;2022-10-31T01:27:12;99884.69;;;11.70;96.16
41573;BME280;27286;47.870;19.006;2022-10-31T01:29:37;99890.81;;;11.69;96.55
41573;BME280;27286;47.870;19.006;2022-10-31T01:32:02;99872.06;;;11.60;96.60
41573;BME280;27286;47.870;19.006;2022-10-31T01:34:28;99859.91;;;11.59;96.71
41573;BME280;27286;47.870;19.006;2022-10-31T01:36:53;99862.59;;;11.57;96.65
41573;BME280;27286;47.870;19.006;2022-10-31T01:39:19;99869.47;;;11.60;96.74
41573;BME280;27286;47.870;19.006;2022-10-31T01:41:47;99863.28;;;11.62;96.70
41573;BME280;27286;47.870;19.006;2022-10-31T01:46:59;99876.97;;;11.67;96.50
41573;BME280;27286;47.870;19.006;2022-10-31T01:49:34;99857.22;;;11.62;96.40
41573;BME280;27286;47.870;19.006;2022-10-31T01:52:07;99862.44;;;11.62;96.20
41573;BME280;27286;47.870;19.006;2022-10-31T01:54:37;99861.66;;;11.60;96.03
41573;BME280;27286;47.870;19.006;2022-10-31T01:57:05;99854.75;;;11.57;96.30
41573;BME280;27286;47.870;19.006;2022-10-31T01:59:33;99859.03;;;11.60;95.94
41573;BME280;27286;47.870;19.006;2022-10-31T02:02:00;99853.00;;;11.58;95.79
41573;BME280;27286;47.870;19.006;2022-10-31T02:04:26;99860.81;;;11.58;95.78
41573;BME280;27286;47.870;19.006;2022-10-31T02:06:59;99863.41;;;11.59;95.75
41573;BME280;27286;47.870;19.006;2022-10-31T02:09:29;99855.97;;;11.49;95.67
41573;BME280;27286;47.870;19.006;2022-10-31T02:11:57;99867.31;;;11.48;96.21
41573;BME280;27286;47.870;19.006;2022-10-31T02:14:25;99858.91;;;11.39;96.41
41573;BME280;27286;47.870;19.006;2022-10-31T02:16:51;99856.31;;;11.39;96.55
41573;BME280;27286;47.870;19.006;2022-10-31T02:19:25;99865.78;;;11.42;96.51
41573;BME280;27286;47.870;19.006;2022-10-31T02:22:02;99857.22;;;11.38;96.56
41573;BME280;27286;47.870;19.006;2022-10-31T02:24:50;99859.84;;;11.38;96.55
41573;BME280;27286;47.870;19.006;2022-10-31T02:30:05;99864.91;;;11.41;96.87
41573;BME280;27286;47.870;19.006;2022-10-31T02:32:52;99860.56;;;11.42;96.87
41573;BME280;27286;47.870;19.006;2022-10-31T02:38:20;99857.06;;;11.43;96.70
41573;BME280;27286;47.870;19.006;2022-10-31T02:48:53;99864.91;;;11.43;96.05
41573;BME280;27286;47.870;19.006;2022-10-31T02:51:20;99865.84;;;11.40;95.91
41573;BME280;27286;47.870;19.006;2022-10-31T02:53:46;99871.81;;;11.44;96.00
41573;BME280;27286;47.870;19.006;2022-10-31T02:56:17;99872.59;;;11.46;95.64
41573;BME280;27286;47.870;19.006;2022-10-31T02:58:49;99877.97;;;11.41;95.57
41573;BME280;27286;47.870;19.006;2022-10-31T03:07:16;99887.50;;;11.42;95.37
41573;BME280;27286;47.870;19.006;2022-10-31T03:09:54;99885.00;;;11.39;95.31
41573;BME280;27286;47.870;19.006;2022-10-31T03:12:33;99886.69;;;11.40;95.30
41573;BME280;27286;47.870;19.006;2022-10-31T03:15:17;99885.91;;;11.38;95.37
41573;BME280;27286;47.870;19.006;2022-10-31T03:20:21;99890.25;;;11.38;95.48
41573;BME280;27286;47.870;19.006;2022-10-31T03:22:48;99894.50;;;11.40;95.51
41573;BME280;27286;47.870;19.006;2022-10-31T03:25:14;99907.41;;;11.45;95.50
41573;BME280;27286;47.870;19.006;2022-10-31T03:27:41;99893.78;;;11.37;95.18
41573;BME280;27286;47.870;19.006;2022-10-31T03:30:09;99903.88;;;11.46;95.26
41573;BME280;27286;47.870;19.006;2022-10-31T03:32:38;99900.63;;;11.39;95.39
41573;BME280;27286;47.870;19.006;2022-10-31T03:35:08;99899.66;;;11.42;95.41
41573;BME280;27286;47.870;19.006;2022-10-31T03:37:36;99896.38;;;11.37;95.45
41573;BME280;27286;47.870;19.006;2022-10-31T03:40:05;99902.50;;;11.36;95.74
41573;BME280;27286;47.870;19.006;2022-10-31T03:42:34;99906.63;;;11.41;95.57
41573;BME280;27286;47.870;19.006;2022-10-31T03:45:08;99907.53;;;11.40;95.38
41573;BME280;27286;47.870;19.006;2022-10-31T03:47:36;99896.44;;;11.35;95.32
41573;BME280;27286;47.870;19.006;2022-10-31T03:50:05;99892.94;;;11.36;95.40
41573;BME280;27286;47.870;19.006;2022-10-31T03:52:45;99903.25;;;11.39;95.38
41573;BME280;27286;47.870;19.006;2022-10-31T03:55:35;99888.63;;;11.35;95.49
41573;BME280;27286;47.870;19.006;2022-10-31T03:58:08;99902.28;;;11.42;95.32
41573;BME280;27286;47.870;19.006;2022-10-31T04:00:35;99901.41;;;11.41;95.41
41573;BME280;27286;47.870;19.006;2022-10-31T04:03:12;99903.09;;;11.44;95.56
41573;BME280;27286;47.870;19.006;2022-10-31T04:05:40;99906.50;;;11.46;95.63
41573;BME280;27286;47.870;19.006;2022-10-31T04:08:10;99891.84;;;11.42;95.71
41573;BME280;27286;47.870;19.006;2022-10-31T04:10:38;99898.66;;;11.46;95.90
41573;BME280;27286;47.870;19.006;2022-10-31T04:13:08;99899.50;;;11.47;95.80
41573;BME280;27286;47.870;19.006;2022-10-31T04:15:35;99901.34;;;11.44;95.94
41573;BME280;27286;47.870;19.006;2022-10-31T04:18:04;99896.97;;;11.45;95.75
41573;BME280;27286;47.870;19.006;2022-10-31T04:20:35;99902.06;;;11.48;95.71
41573;BME280;27286;47.870;19.006;2022-10-31T04:23:02;99897.81;;;11.45;95.82
41573;BME280;27286;47.870;19.006;2022-10-31T04:25:28;99899.63;;;11.43;95.73
41573;BME280;27286;47.870;19.006;2022-10-31T04:27:54;99892.72;;;11.42;95.94
41573;BME280;27286;47.870;19.006;2022-10-31T04:30:19;99904.84;;;11.43;96.16
41573;BME280;27286;47.870;19.006;2022-10-31T04:32:45;99900.44;;;11.45;96.23
41573;BME280;27286;47.870;19.006;2022-10-31T04:35:10;99908.13;;;11.49;96.26
41573;BME280;27286;47.870;19.006;2022-10-31T04:37:35;99904.66;;;11.48;96.42
41573;BME280;27286;47.870;19.006;2022-10-31T04:40:01;99903.75;;;11.49;96.45
41573;BME280;27286;47.870;19.006;2022-10-31T04:42:29;99890.91;;;11.44;96.65
41573;BME280;27286;47.870;19.006;2022-10-31T04:44:55;99902.00;;;11.50;96.56
41573;BME280;27286;47.870;19.006;2022-10-31T04:47:20;99900.31;;;11.49;96.70
41573;BME280;27286;47.870;19.006;2022-10-31T04:49:45;99901.28;;;11.46;96.76
41573;BME280;27286;47.870;19.006;2022-10-31T04:52:11;99906.38;;;11.49;96.90
41573;BME280;27286;47.870;19.006;2022-10-31T04:54:36;99905.47;;;11.50;96.89
41573;BME280;27286;47.870;19.006;2022-10-31T04:57:01;99911.47;;;11.52;96.80
41573;BME280;27286;47.870;19.006;2022-10-31T04:59:27;99911.47;;;11.52;97.06
41573;BME280;27286;47.870;19.006;2022-10-31T05:01:52;99912.31;;;11.53;97.04
41573;BME280;27286;47.870;19.006;2022-10-31T05:04:18;99914.06;;;11.52;97.15
41573;BME280;27286;47.870;19.006;2022-10-31T05:06:43;99907.22;;;11.50;97.22
41573;BME280;27286;47.870;19.006;2022-10-31T05:09:08;99914.00;;;11.54;97.55
41573;BME280;27286;47.870;19.006;2022-10-31T05:11:34;99914.06;;;11.52;97.58
41573;BME280;27286;47.870;19.006;2022-10-31T05:13:59;99915.88;;;11.50;97.63
41573;BME280;27286;47.870;19.006;2022-10-31T05:16:24;99916.63;;;11.54;97.69
41573;BME280;27286;47.870;19.006;2022-10-31T05:18:50;99914.91;;;11.53;97.86
41573;BME280;27286;47.870;19.006;2022-10-31T05:21:15;99909.75;;;11.51;97.86
41573;BME280;27286;47.870;19.006;2022-10-31T05:23:41;99912.25;;;11.54;97.90
41573;BME280;27286;47.870;19.006;2022-10-31T05:26:06;99911.41;;;11.54;98.00
41573;BME280;27286;47.870;19.006;2022-10-31T05:28:31;99921.81;;;11.54;98.03
41573;BME280;27286;47.870;19.006;2022-10-31T05:30:57;99921.09;;;11.50;98.19
41573;BME280;27286;47.870;19.006;2022-10-31T05:33:22;99917.75;;;11.47;98.33
41573;BME280;27286;47.870;19.006;2022-10-31T05:35:48;99922.00;;;11.49;98.71
41573;BME280;27286;47.870;19.006;2022-10-31T05:38:13;99922.25;;;11.43;98.53
41573;BME280;27286;47.870;19.006;2022-10-31T05:40:38;99911.75;;;11.44;98.62
41573;BME280;27286;47.870;19.006;2022-10-31T05:43:04;99934.06;;;11.52;98.21
41573;BME280;27286;47.870;19.006;2022-10-31T05:45:29;99929.88;;;11.48;98.58
41573;BME280;27286;47.870;19.006;2022-10-31T05:47:57;99931.41;;;11.53;98.57
41573;BME280;27286;47.870;19.006;2022-10-31T05:50:23;99936.56;;;11.55;98.46
41573;BME280;27286;47.870;19.006;2022-10-31T05:52:55;99936.56;;;11.55;98.72
41573;BME280;27286;47.870;19.006;2022-10-31T05:55:21;99936.50;;;11.56;98.76
41573;BME280;27286;47.870;19.006;2022-10-31T05:57:46;99930.56;;;11.53;98.61
41573;BME280;27286;47.870;19.006;2022-10-31T06:00:12;99933.00;;;11.57;98.42
41573;BME280;27286;47.870;19.006;2022-10-31T06:02:37;99932.06;;;11.58;98.47
41573;BME280;27286;47.870;19.006;2022-10-31T06:05:03;99938.06;;;11.62;98.47
41573;BME280;27286;47.870;19.006;2022-10-31T06:07:33;99941.63;;;11.59;98.41
41573;BME280;27286;47.870;19.006;2022-10-31T06:09:59;99936.41;;;11.59;98.22
41573;BME280;27286;47.870;19.006;2022-10-31T06:12:24;99929.53;;;11.57;98.14
41573;BME280;27286;47.870;19.006;2022-10-31T06:14:50;99930.28;;;11.60;98.45
41573;BME280;27286;47.870;19.006;2022-10-31T06:17:15;99938.13;;;11.60;98.32
41573;BME280;27286;47.870;19.006;2022-10-31T06:19:40;99938.13;;;11.60;98.39
41573;BME280;27286;47.870;19.006;2022-10-31T06:22:06;99949.41;;;11.61;98.56
41573;BME280;27286;47.870;19.006;2022-10-31T06:24:31;99933.91;;;11.56;98.60
41573;BME280;27286;47.870;19.006;2022-10-31T06:26:57;99951.81;;;11.65;98.63
41573;BME280;27286;47.870;19.006;2022-10-31T06:29:22;99950.06;;;11.66;98.67
41573;BME280;27286;47.870;19.006;2022-10-31T06:31:51;99950.00;;;11.67;98.78
41573;BME280;27286;47.870;19.006;2022-10-31T06:34:16;99949.22;;;11.65;98.87
41573;BME280;27286;47.870;19.006;2022-10-31T06:36:41;99955.22;;;11.67;98.96
41573;BME280;27286;47.870;19.006;2022-10-31T06:39:07;99949.94;;;11.69;98.71
41573;BME280;27286;47.870;19.006;2022-10-31T06:41:32;99949.22;;;11.65;98.88
41573;BME280;27286;47.870;19.006;2022-10-31T06:43:58;99955.94;;;11.71;98.73
41573;BME280;27286;47.870;19.006;2022-10-31T06:46:25;99959.41;;;11.71;98.87
41573;BME280;27286;47.870;19.006;2022-10-31T06:48:50;99962.94;;;11.70;99.06
41573;BME280;27286;47.870;19.006;2022-10-31T06:51:15;99964.50;;;11.74;99.31
41573;BME280;27286;47.870;19.006;2022-10-31T06:53:41;99972.28;;;11.76;99.39
41573;BME280;27286;47.870;19.006;2022-10-31T06:56:06;99967.09;;;11.76;99.56
41573;BME280;27286;47.870;19.006;2022-10-31T06:58:32;99957.50;;;11.77;99.61
41573;BME280;27286;47.870;19.006;2022-10-31T07:01:00;99955.75;;;11.77;99.60
41573;BME280;27286;47.870;19.006;2022-10-31T07:03:26;99957.50;;;11.77;99.74
41573;BME280;27286;47.870;19.006;2022-10-31T07:05:51;99955.75;;;11.77;99.70
41573;BME280;27286;47.870;19.006;2022-10-31T07:08:17;99968.69;;;11.80;99.75
41573;BME280;27286;47.870;19.006;2022-10-31T07:10:42;99967.84;;;11.80;99.72
41573;BME280;27286;47.870;19.006;2022-10-31T07:13:11;99976.34;;;11.85;100.00
41573;BME280;27286;47.870;19.006;2022-10-31T07:15:38;99981.38;;;11.89;100.00
41573;BME280;27286;47.870;19.006;2022-10-31T07:18:05;99970.34;;;11.83;100.00
41573;BME280;27286;47.870;19.006;2022-10-31T07:20:31;99968.69;;;11.80;100.00
41573;BME280;27286;47.870;19.006;2022-10-31T07:22:57;99984.78;;;11.91;100.00
41573;BME280;27286;47.870;19.006;2022-10-31T07:25:23;99990.91;;;11.90;100.00
41573;BME280;27286;47.870;19.006;2022-10-31T07:27:49;99989.25;;;11.88;99.92
41573;BME280;27286;47.870;19.006;2022-10-31T07:30:15;99976.50;;;11.80;99.98
41573;BME280;27286;47.870;19.006;2022-10-31T07:32:47;99997.94;;;11.88;100.00
41573;BME280;27286;47.870;19.006;2022-10-31T07:35:16;99994.41;;;11.89;100.00
41573;BME280;27286;47.870;19.006;2022-10-31T07:37:42;99993.50;;;11.90;100.00
41573;BME280;27286;47.870;19.006;2022-10-31T07:40:08;99995.19;;;11.91;99.96
41573;BME280;27286;47.870;19.006;2022-10-31T07:42:45;99996.06;;;11.92;99.64
41573;BME280;27286;47.870;19.006;2022-10-31T07:45:13;99994.41;;;11.89;99.79
41573;BME280;27286;47.870;19.006;2022-10-31T07:47:46;99994.28;;;11.92;99.79
41573;BME280;27286;47.870;19.006;2022-10-31T07:50:16;99996.06;;;11.92;99.59
41573;BME280;27286;47.870;19.006;2022-10-31T07:52:42;99996.81;;;11.95;99.38
41573;BME280;27286;47.870;19.006;2022-10-31T07:55:08;99985.53;;;11.95;99.19
41573;BME280;27286;47.870;19.006;2022-10-31T07:57:33;99987.22;;;11.96;99.31
41573;BME280;27286;47.870;19.006;2022-10-31T07:59:59;99981.16;;;11.95;99.22
41573;BME280;27286;47.870;19.006;2022-10-31T08:02:25;99980.97;;;12.00;98.94
41573;BME280;27286;47.870;19.006;2022-10-31T08:04:50;99977.50;;;11.99;98.47
41573;BME280;27286;47.870;19.006;2022-10-31T08:07:16;99981.75;;;12.02;98.17
41573;BME280;27286;47.870;19.006;2022-10-31T08:09:42;99989.59;;;12.02;98.17
41573;BME280;27286;47.870;19.006;2022-10-31T08:12:07;99990.31;;;12.05;97.81
41573;BME280;27286;47.870;19.006;2022-10-31T08:14:33;99992.94;;;12.05;97.83
41573;BME280;27286;47.870;19.006;2022-10-31T08:16:58;99992.13;;;12.03;97.70
41573;BME280;27286;47.870;19.006;2022-10-31T08:19:24;99997.28;;;12.05;97.67
41573;BME280;27286;47.870;19.006;2022-10-31T08:21:53;99998.16;;;12.05;97.97
41573;BME280;27286;47.870;19.006;2022-10-31T08:24:20;99993.91;;;12.03;98.09
41573;BME280;27286;47.870;19.006;2022-10-31T08:26:46;99995.47;;;12.07;98.09
41573;BME280;27286;47.870;19.006;2022-10-31T08:29:11;99996.44;;;12.04;97.95
41573;BME280;27286;47.870;19.006;2022-10-31T08:31:38;99996.31;;;12.08;97.66
41573;BME280;27286;47.870;19.006;2022-10-31T08:34:03;100004.00;;;12.12;98.13
41573;BME280;27286;47.870;19.006;2022-10-31T08:36:29;99998.72;;;12.14;97.87
41573;BME280;27286;47.870;19.006;2022-10-31T08:38:54;99993.72;;;12.08;97.73
41573;BME280;27286;47.870;19.006;2022-10-31T08:41:20;100000.59;;;12.10;97.73
41573;BME280;27286;47.870;19.006;2022-10-31T08:43:46;99998.00;;;12.10;97.86
41573;BME280;27286;47.870;19.006;2022-10-31T08:46:11;100007.53;;;12.11;98.07
41573;BME280;27286;47.870;19.006;2022-10-31T08:48:37;99981.69;;;12.03;97.84
41573;BME280;27286;47.870;19.006;2022-10-31T08:51:02;100004.72;;;12.16;97.51
41573;BME280;27286;47.870;19.006;2022-10-31T08:53:28;100000.47;;;12.13;97.49
41573;BME280;27286;47.870;19.006;2022-10-31T08:55:55;99994.53;;;12.10;97.25
41573;BME280;27286;47.870;19.006;2022-10-31T08:58:21;99996.25;;;12.09;97.15
41573;BME280;27286;47.870;19.006;2022-10-31T09:00:49;100005.56;;;12.16;97.37
41573;BME280;27286;47.870;19.006;2022-10-31T09:03:17;100004.00;;;12.12;97.35
41573;BME280;27286;47.870;19.006;2022-10-31T09:05:43;100006.53;;;12.14;97.27
41573;BME280;27286;47.870;19.006;2022-10-31T09:08:08;99997.94;;;12.12;97.39
41573;BME280;27286;47.870;19.006;2022-10-31T09:10:35;100000.41;;;12.15;97.36
41573;BME280;27286;47.870;19.006;2022-10-31T09:13:06;100003.81;;;12.17;97.48
41573;BME280;27286;47.870;19.006;2022-10-31T09:15:38;100007.22;;;12.19;97.39
41573;BME280;27286;47.870;19.006;2022-10-31T09:18:05;99996.91;;;12.16;97.48
41573;BME280;27286;47.870;19.006;2022-10-31T09:20:31;100010.53;;;12.22;97.32
41573;BME280;27286;47.870;19.006;2022-10-31T09:22:58;100012.25;;;12.23;97.17
41573;BME280;27286;47.870;19.006;2022-10-31T09:25:25;100001.06;;;12.20;97.16
41573;BME280;27286;47.870;19.006;2022-10-31T09:27:50;100011.47;;;12.21;97.12
41573;BME280;27286;47.870;19.006;2022-10-31T09:30:16;99993.50;;;12.14;97.32
41573;BME280;27286;47.870;19.006;2022-10-31T09:32:41;100008.25;;;12.15;97.43
41573;BME280;27286;47.870;19.006;2022-10-31T09:35:07;99995.13;;;12.16;97.44
41573;BME280;27286;47.870;19.006;2022-10-31T09:37:33;100013.28;;;12.19;97.65
41573;BME280;27286;47.870;19.006;2022-10-31T09:39:58;100003.88;;;12.15;97.87
41573;BME280;27286;47.870;19.006;2022-10-31T09:42:48;100014.13;;;12.20;97.90
41573;BME280;27286;47.870;19.006;2022-10-31T09:45:22;100010.66;;;12.19;98.01
41573;BME280;27286;47.870;19.006;2022-10-31T09:50:37;100005.63;;;12.15;97.93
41573;BME280;27286;47.870;19.006;2022-10-31T09:53:09;100005.63;;;12.15;97.97
41573;BME280;27286;47.870;19.006;2022-10-31T09:55:40;100002.19;;;12.14;97.83
41573;BME280;27286;47.870;19.006;2022-10-31T09:58:16;100004.59;;;12.19;97.96
41573;BME280;27286;47.870;19.006;2022-10-31T10:00:44;100005.56;;;12.16;97.81
41573;BME280;27286;47.870;19.006;2022-10-31T10:03:28;100004.66;;;12.17;97.46
41573;BME280;27286;47.870;19.006;2022-10-31T10:06:19;100001.25;;;12.15;97.51
41573;BME280;27286;47.870;19.006;2022-10-31T10:08:46;100006.31;;;12.20;97.51
41573;BME280;27286;47.870;19.006;2022-10-31T10:14:17;100005.25;;;12.24;97.42
41573;BME280;27286;47.870;19.006;2022-10-31T10:22:47;99998.34;;;12.23;97.16
41573;BME280;27286;47.870;19.006;2022-10-31T10:30:37;100001.94;;;12.20;98.04
41573;BME280;27286;47.870;19.006;2022-10-31T10:33:14;100000.09;;;12.22;98.07
41573;BME280;27286;47.870;19.006;2022-10-31T10:35:54;99995.91;;;12.18;97.92
41573;BME280;27286;47.870;19.006;2022-10-31T10:40:58;100002.78;;;12.21;97.82
41573;BME280;27286;47.870;19.006;2022-10-31T10:43:38;100003.88;;;12.15;97.48
41573;BME280;27286;47.870;19.006;2022-10-31T10:54:37;99998.47;;;12.20;97.47
41573;BME280;27286;47.870;19.006;2022-10-31T10:57:42;99990.63;;;12.20;97.23
41573;BME280;27286;47.870;19.006;2022-10-31T11:00:23;99985.53;;;12.17;96.87
41573;BME280;27286;47.870;19.006;2022-10-31T11:02:49;99976.81;;;12.18;96.85
41573;BME280;27286;47.870;19.006;2022-10-31T11:07:49;99980.13;;;12.21;97.12
41573;BME280;27286;47.870;19.006;2022-10-31T11:10:15;99984.44;;;12.22;97.21
41573;BME280;27286;47.870;19.006;2022-10-31T11:12:42;99981.69;;;12.25;96.96
41573;BME280;27286;47.870;19.006;2022-10-31T11:15:19;99979.94;;;12.26;96.74
41573;BME280;27286;47.870;19.006;2022-10-31T11:17:49;99974.84;;;12.23;96.55
41573;BME280;27286;47.870;19.006;2022-10-31T11:22:42;99982.53;;;12.27;96.31
41573;BME280;27286;47.870;19.006;2022-10-31T11:25:24;99978.16;;;12.28;96.31
41573;BME280;27286;47.870;19.006;2022-10-31T11:28:00;99976.47;;;12.27;96.28
41573;BME280;27286;47.870;19.006;2022-10-31T11:30:26;99975.53;;;12.28;96.20
41573;BME280;27286;47.870;19.006;2022-10-31T11:32:52;99975.59;;;12.26;96.34
41573;BME280;27286;47.870;19.006;2022-10-31T11:35:20;99973.78;;;12.28;96.18
41573;BME280;27286;47.870;19.006;2022-10-31T11:37:48;99979.72;;;12.32;95.92
41573;BME280;27286;47.870;19.006;2022-10-31T11:40:20;99977.91;;;12.34;95.88
41573;BME280;27286;47.870;19.006;2022-10-31T11:42:47;99977.13;;;12.32;95.69
41573;BME280;27286;47.870;19.006;2022-10-31T11:45:31;99981.28;;;12.36;95.15
41573;BME280;27286;47.870;19.006;2022-10-31T11:47:58;99976.91;;;12.37;95.24
41573;BME280;27286;47.870;19.006;2022-10-31T11:50:41;99978.69;;;12.36;94.93
41573;BME280;27286;47.870;19.006;2022-10-31T11:53:19;99970.91;;;12.34;95.00
41573;BME280;27286;47.870;19.006;2022-10-31T11:55:46;99970.91;;;12.34;94.89
41573;BME280;27286;47.870;19.006;2022-10-31T11:58:25;99965.63;;;12.36;94.61
41573;BME280;27286;47.870;19.006;2022-10-31T12:00:53;99964.59;;;12.40;94.63
41573;BME280;27286;47.870;19.006;2022-10-31T12:06:02;99972.31;;;12.43;94.26
41573;BME280;27286;47.870;19.006;2022-10-31T12:08:34;99965.34;;;12.44;94.39
41573;BME280;27286;47.870;19.006;2022-10-31T12:19:40;99970.78;;;12.38;94.14
41573;BME280;27286;47.870;19.006;2022-10-31T12:22:57;99974.25;;;12.38;94.37
41573;BME280;27286;47.870;19.006;2022-10-31T12:27:32;99964.06;;;12.32;94.81
41573;BME280;27286;47.870;19.006;2022-10-31T12:30:19;99968.50;;;12.30;94.95
41573;BME280;27286;47.870;19.006;2022-10-31T12:44:05;99960.53;;;12.33;95.16
41573;BME280;27286;47.870;19.006;2022-10-31T12:55:14;99958.97;;;12.29;95.61
41573;BME280;27286;47.870;19.006;2022-10-31T12:57:47;99960.72;;;12.28;95.67
41573;BME280;27286;47.870;19.006;2022-10-31T13:00:18;99958.97;;;12.29;95.75
41573;BME280;27286;47.870;19.006;2022-10-31T13:02:54;99956.44;;;12.26;95.78
41573;BME280;27286;47.870;19.006;2022-10-31T13:05:39;99950.34;;;12.27;95.96
41573;BME280;27286;47.870;19.006;2022-10-31T13:08:16;99946.91;;;12.25;96.04
41573;BME280;27286;47.870;19.006;2022-10-31T13:10:47;99952.13;;;12.25;96.01
41573;BME280;27286;47.870;19.006;2022-10-31T13:13:18;99951.19;;;12.27;96.03
41573;BME280;27286;47.870;19.006;2022-10-31T13:15:51;99943.47;;;12.24;95.98
41573;BME280;27286;47.870;19.006;2022-10-31T13:18:32;99943.47;;;12.24;96.10
41573;BME280;27286;47.870;19.006;2022-10-31T13:21:02;99940.91;;;12.23;96.17
41573;BME280;27286;47.870;19.006;2022-10-31T13:23:36;99949.53;;;12.25;96.12
41573;BME280;27286;47.870;19.006;2022-10-31T13:26:12;99941.69;;;12.25;96.13
41573;BME280;27286;47.870;19.006;2022-10-31T13:28:48;99945.28;;;12.22;96.46
41573;BME280;27286;47.870;19.006;2022-10-31T13:31:16;99944.56;;;12.19;96.49
41573;BME280;27286;47.870;19.006;2022-10-31T13:33:49;99950.56;;;12.21;96.68
41573;BME280;27286;47.870;19.006;2022-10-31T13:36:36;99958.41;;;12.21;96.66
41573;BME280;27286;47.870;19.006;2022-10-31T13:39:17;99951.47;;;12.20;96.91
41573;BME280;27286;47.870;19.006;2022-10-31T13:41:49;99955.00;;;12.19;96.93
41573;BME280;27286;47.870;19.006;2022-10-31T13:46:49;99942.09;;;12.16;96.92
41573;BME280;27286;47.870;19.006;2022-10-31T13:49:39;99952.22;;;12.23;96.65
41573;BME280;27286;47.870;19.006;2022-10-31T13:52:16;99959.25;;;12.21;96.76
41573;BME280;27286;47.870;19.006;2022-10-31T13:54:44;99954.09;;;12.20;96.73
41573;BME280;27286;47.870;19.006;2022-10-31T13:57:30;99948.88;;;12.20;96.78
41573;BME280;27286;47.870;19.006;2022-10-31T14:00:03;99952.41;;;12.19;96.64
41573;BME280;27286;47.870;19.006;2022-10-31T14:02:36;99953.31;;;12.18;96.71
41573;BME280;27286;47.870;19.006;2022-10-31T14:05:17;99930.28;;;12.05;96.89
41573;BME280;27286;47.870;19.006;2022-10-31T14:07:45;99935.38;;;12.09;97.02
41573;BME280;27286;47.870;19.006;2022-10-31T14:10:29;99948.16;;;12.16;97.39
41573;BME280;27286;47.870;19.006;2022-10-31T14:13:14;99937.06;;;12.11;97.46
41573;BME280;27286;47.870;19.006;2022-10-31T14:15:51;99948.03;;;12.19;97.50
41573;BME280;27286;47.870;19.006;2022-10-31T14:18:38;99943.59;;;12.21;97.37
41573;BME280;27286;47.870;19.006;2022-10-31T14:21:40;99945.41;;;12.19;97.38
41573;BME280;27286;47.870;19.006;2022-10-31T14:24:31;99944.50;;;12.20;97.26
41573;BME280;27286;47.870;19.006;2022-10-31T14:27:02;99950.56;;;12.21;97.46
41573;BME280;27286;47.870;19.006;2022-10-31T14:29:30;99943.78;;;12.17;97.17
41573;BME280;27286;47.870;19.006;2022-10-31T14:37:32;99951.69;;;12.15;97.07
41573;BME280;27286;47.870;19.006;2022-10-31T14:42:56;99947.56;;;12.10;97.26